sensor_id;sensor_type;location;lat;lon;timestamp;P1;durP1;ratioP1;P2;durP2;ratioP2
53269;SDS011;39159;45.634;9.420;2023-06-10T00:01:41;23.38;;;17.27;;
53269;SDS011;39159;45.634;9.420;2023-06-10T00:04:08;20.88;;;16.77;;
53269;SDS011;39159;45.634;9.420;2023-06-10T00:06:34;20.75;;;15.70;;
53269;SDS011;39159;45.634;9.420;2023-06-10T00:09:03;19.80;;;15.48;;
53269;SDS011;39159;45.634;9.420;2023-06-10T00:11:35;19.73;;;14.45;;
53269;SDS011;39159;45.634;9.420;2023-06-10T00:14:01;21.70;;;16.40;;
53269;SDS011;39159;45.634;9.420;2023-06-10T00:16:26;18.38;;;14.65;;
53269;SDS011;39159;45.634;9.420;2023-06-10T00:18:52;17.52;;;13.55;;
53269;SDS011;39159;45.634;9.420;2023-06-10T00:21:20;21.92;;;16.48;;
53269;SDS011;39159;45.634;9.420;2023-06-10T00:23:46;19.98;;;15.15;;
53269;SDS011;39159;45.634;9.420;2023-06-10T00:26:12;18.15;;;14.93;;
53269;SDS011;39159;45.634;9.420;2023-06-10T00:28:37;20.75;;;16.33;;
53269;SDS011;39159;45.634;9.420;2023-06-10T00:31:03;21.00;;;15.70;;
53269;SDS011;39159;45.634;9.420;2023-06-10T00:33:29;15.85;;;13.38;;
53269;SDS011;39159;45.634;9.420;2023-06-10T00:35:55;15.77;;;12.90;;
53269;SDS011;39159;45.634;9.420;2023-06-10T00:38:20;18.40;;;13.93;;
53269;SDS011;39159;45.634;9.420;2023-06-10T00:40:46;17.15;;;13.77;;
53269;SDS011;39159;45.634;9.420;2023-06-10T00:43:11;23.42;;;17.88;;
53269;SDS011;39159;45.634;9.420;2023-06-10T00:45:37;20.85;;;14.90;;
53269;SDS011;39159;45.634;9.420;2023-06-10T00:48:02;20.25;;;16.25;;
53269;SDS011;39159;45.634;9.420;2023-06-10T00:50:29;22.35;;;15.85;;
53269;SDS011;39159;45.634;9.420;2023-06-10T00:52:56;23.55;;;17.25;;
53269;SDS011;39159;45.634;9.420;2023-06-10T00:55:22;22.10;;;16.40;;
53269;SDS011;39159;45.634;9.420;2023-06-10T00:57:48;22.88;;;14.82;;
53269;SDS011;39159;45.634;9.420;2023-06-10T01:00:16;18.17;;;12.82;;
53269;SDS011;39159;45.634;9.420;2023-06-10T01:02:42;20.17;;;11.80;;
53269;SDS011;39159;45.634;9.420;2023-06-10T01:05:08;16.52;;;12.60;;
53269;SDS011;39159;45.634;9.420;2023-06-10T01:12:52;13.27;;;7.10;;
53269;SDS011;39159;45.634;9.420;2023-06-10T01:15:24;8.88;;;5.82;;
53269;SDS011;39159;45.634;9.420;2023-06-10T01:17:57;8.02;;;4.45;;
53269;SDS011;39159;45.634;9.420;2023-06-10T01:20:30;8.55;;;4.80;;
53269;SDS011;39159;45.634;9.420;2023-06-10T01:22:57;5.53;;;4.00;;
53269;SDS011;39159;45.634;9.420;2023-06-10T01:25:25;8.88;;;4.82;;
53269;SDS011;39159;45.634;9.420;2023-06-10T01:27:57;6.82;;;3.90;;
53269;SDS011;39159;45.634;9.420;2023-06-10T01:30:26;7.63;;;4.50;;
53269;SDS011;39159;45.634;9.420;2023-06-10T01:32:55;8.23;;;4.88;;
53269;SDS011;39159;45.634;9.420;2023-06-10T01:35:25;11.13;;;5.10;;
53269;SDS011;39159;45.634;9.420;2023-06-10T01:37:53;6.32;;;4.80;;
53269;SDS011;39159;45.634;9.420;2023-06-10T01:40:22;5.50;;;4.70;;
53269;SDS011;39159;45.634;9.420;2023-06-10T01:42:48;11.07;;;4.55;;
53269;SDS011;39159;45.634;9.420;2023-06-10T01:45:14;11.05;;;6.10;;
53269;SDS011;39159;45.634;9.420;2023-06-10T01:47:40;9.25;;;5.80;;
53269;SDS011;39159;45.634;9.420;2023-06-10T01:50:05;11.15;;;5.30;;
53269;SDS011;39159;45.634;9.420;2023-06-10T01:52:31;11.70;;;6.75;;
53269;SDS011;39159;45.634;9.420;2023-06-10T01:54:57;9.55;;;7.82;;
53269;SDS011;39159;45.634;9.420;2023-06-10T01:57:22;15.70;;;10.98;;
53269;SDS011;39159;45.634;9.420;2023-06-10T01:59:48;11.48;;;8.93;;
53269;SDS011;39159;45.634;9.420;2023-06-10T02:02:13;16.17;;;10.73;;
53269;SDS011;39159;45.634;9.420;2023-06-10T02:04:39;16.95;;;10.82;;
53269;SDS011;39159;45.634;9.420;2023-06-10T02:07:04;13.52;;;8.88;;
53269;SDS011;39159;45.634;9.420;2023-06-10T02:09:30;11.45;;;9.65;;
53269;SDS011;39159;45.634;9.420;2023-06-10T02:11:57;14.68;;;10.88;;
53269;SDS011;39159;45.634;9.420;2023-06-10T02:14:23;13.90;;;9.88;;
53269;SDS011;39159;45.634;9.420;2023-06-10T02:16:48;12.48;;;10.05;;
53269;SDS011;39159;45.634;9.420;2023-06-10T02:19:14;16.15;;;10.75;;
53269;SDS011;39159;45.634;9.420;2023-06-10T02:21:39;15.68;;;11.75;;
53269;SDS011;39159;45.634;9.420;2023-06-10T02:24:05;13.98;;;9.98;;
53269;SDS011;39159;45.634;9.420;2023-06-10T02:26:30;13.18;;;9.60;;
53269;SDS011;39159;45.634;9.420;2023-06-10T02:28:56;12.80;;;8.77;;
53269;SDS011;39159;45.634;9.420;2023-06-10T02:31:22;10.80;;;8.30;;
53269;SDS011;39159;45.634;9.420;2023-06-10T02:33:49;9.23;;;6.70;;
53269;SDS011;39159;45.634;9.420;2023-06-10T02:36:14;13.98;;;8.50;;
53269;SDS011;39159;45.634;9.420;2023-06-10T02:38:40;14.15;;;7.50;;
53269;SDS011;39159;45.634;9.420;2023-06-10T02:41:06;14.38;;;7.53;;
53269;SDS011;39159;45.634;9.420;2023-06-10T02:43:32;11.82;;;8.25;;
53269;SDS011;39159;45.634;9.420;2023-06-10T02:45:57;13.90;;;7.53;;
53269;SDS011;39159;45.634;9.420;2023-06-10T02:48:26;19.50;;;9.23;;
53269;SDS011;39159;45.634;9.420;2023-06-10T02:50:53;13.18;;;8.95;;
53269;SDS011;39159;45.634;9.420;2023-06-10T02:53:18;10.98;;;8.20;;
53269;SDS011;39159;45.634;9.420;2023-06-10T02:55:44;11.02;;;8.27;;
53269;SDS011;39159;45.634;9.420;2023-06-10T02:58:09;15.73;;;9.38;;
53269;SDS011;39159;45.634;9.420;2023-06-10T03:00:35;8.90;;;7.68;;
53269;SDS011;39159;45.634;9.420;2023-06-10T03:03:02;15.00;;;9.98;;
53269;SDS011;39159;45.634;9.420;2023-06-10T03:05:31;10.98;;;8.23;;
53269;SDS011;39159;45.634;9.420;2023-06-10T03:07:57;16.55;;;8.45;;
53269;SDS011;39159;45.634;9.420;2023-06-10T03:10:23;10.95;;;8.48;;
53269;SDS011;39159;45.634;9.420;2023-06-10T03:12:48;10.85;;;8.13;;
53269;SDS011;39159;45.634;9.420;2023-06-10T03:15:14;8.88;;;6.93;;
53269;SDS011;39159;45.634;9.420;2023-06-10T03:17:41;9.07;;;6.85;;
53269;SDS011;39159;45.634;9.420;2023-06-10T03:20:06;13.50;;;7.35;;
53269;SDS011;39159;45.634;9.420;2023-06-10T03:22:35;11.38;;;7.25;;
53269;SDS011;39159;45.634;9.420;2023-06-10T03:25:02;8.50;;;6.53;;
53269;SDS011;39159;45.634;9.420;2023-06-10T03:27:29;10.23;;;7.25;;
53269;SDS011;39159;45.634;9.420;2023-06-10T03:29:55;10.80;;;7.28;;
53269;SDS011;39159;45.634;9.420;2023-06-10T03:32:20;11.50;;;6.97;;
53269;SDS011;39159;45.634;9.420;2023-06-10T03:34:46;11.13;;;7.40;;
53269;SDS011;39159;45.634;9.420;2023-06-10T03:37:12;10.98;;;6.88;;
53269;SDS011;39159;45.634;9.420;2023-06-10T03:39:38;8.55;;;6.15;;
53269;SDS011;39159;45.634;9.420;2023-06-10T03:42:04;9.90;;;6.70;;
53269;SDS011;39159;45.634;9.420;2023-06-10T03:44:30;11.52;;;7.65;;
53269;SDS011;39159;45.634;9.420;2023-06-10T03:46:56;11.73;;;7.40;;
53269;SDS011;39159;45.634;9.420;2023-06-10T03:49:22;10.15;;;6.88;;
53269;SDS011;39159;45.634;9.420;2023-06-10T03:51:52;11.80;;;6.65;;
53269;SDS011;39159;45.634;9.420;2023-06-10T03:54:18;11.40;;;7.40;;
53269;SDS011;39159;45.634;9.420;2023-06-10T03:56:43;9.45;;;6.90;;
53269;SDS011;39159;45.634;9.420;2023-06-10T03:59:09;8.05;;;6.03;;
53269;SDS011;39159;45.634;9.420;2023-06-10T04:01:35;13.27;;;8.20;;
53269;SDS011;39159;45.634;9.420;2023-06-10T04:04:02;11.50;;;6.85;;
53269;SDS011;39159;45.634;9.420;2023-06-10T04:06:28;12.38;;;7.15;;
53269;SDS011;39159;45.634;9.420;2023-06-10T04:08:54;11.52;;;7.13;;
53269;SDS011;39159;45.634;9.420;2023-06-10T04:11:22;11.18;;;6.97;;
53269;SDS011;39159;45.634;9.420;2023-06-10T04:13:49;15.85;;;8.15;;
53269;SDS011;39159;45.634;9.420;2023-06-10T04:16:14;10.68;;;7.78;;
53269;SDS011;39159;45.634;9.420;2023-06-10T04:18:41;11.00;;;7.93;;
53269;SDS011;39159;45.634;9.420;2023-06-10T04:21:07;12.07;;;7.95;;
53269;SDS011;39159;45.634;9.420;2023-06-10T04:23:33;9.15;;;7.20;;
53269;SDS011;39159;45.634;9.420;2023-06-10T04:26:01;7.63;;;6.03;;
53269;SDS011;39159;45.634;9.420;2023-06-10T04:28:27;8.38;;;6.10;;
53269;SDS011;39159;45.634;9.420;2023-06-10T04:30:52;10.43;;;7.65;;
53269;SDS011;39159;45.634;9.420;2023-06-10T04:33:18;8.43;;;6.65;;
53269;SDS011;39159;45.634;9.420;2023-06-10T04:35:43;8.95;;;6.03;;
53269;SDS011;39159;45.634;9.420;2023-06-10T04:38:09;6.93;;;6.22;;
53269;SDS011;39159;45.634;9.420;2023-06-10T04:40:35;10.25;;;7.78;;
53269;SDS011;39159;45.634;9.420;2023-06-10T04:43:00;8.75;;;6.18;;
53269;SDS011;39159;45.634;9.420;2023-06-10T04:45:26;8.60;;;6.10;;
53269;SDS011;39159;45.634;9.420;2023-06-10T04:47:51;6.82;;;5.13;;
53269;SDS011;39159;45.634;9.420;2023-06-10T04:50:17;9.13;;;6.88;;
53269;SDS011;39159;45.634;9.420;2023-06-10T04:52:42;8.25;;;6.00;;
53269;SDS011;39159;45.634;9.420;2023-06-10T04:55:08;9.70;;;6.85;;
53269;SDS011;39159;45.634;9.420;2023-06-10T04:57:33;9.18;;;6.78;;
53269;SDS011;39159;45.634;9.420;2023-06-10T04:59:59;10.13;;;6.45;;
53269;SDS011;39159;45.634;9.420;2023-06-10T05:02:24;7.25;;;5.50;;
53269;SDS011;39159;45.634;9.420;2023-06-10T05:04:50;9.07;;;7.25;;
53269;SDS011;39159;45.634;9.420;2023-06-10T05:07:15;8.40;;;6.57;;
53269;SDS011;39159;45.634;9.420;2023-06-10T05:09:41;8.73;;;6.68;;
53269;SDS011;39159;45.634;9.420;2023-06-10T05:12:06;8.32;;;6.38;;
53269;SDS011;39159;45.634;9.420;2023-06-10T05:14:33;9.40;;;6.40;;
53269;SDS011;39159;45.634;9.420;2023-06-10T05:16:59;12.98;;;7.28;;
53269;SDS011;39159;45.634;9.420;2023-06-10T05:19:24;13.82;;;8.55;;
53269;SDS011;39159;45.634;9.420;2023-06-10T05:21:50;9.93;;;6.72;;
53269;SDS011;39159;45.634;9.420;2023-06-10T05:24:15;13.32;;;8.00;;
53269;SDS011;39159;45.634;9.420;2023-06-10T05:26:41;11.27;;;7.60;;
53269;SDS011;39159;45.634;9.420;2023-06-10T05:29:07;12.50;;;7.38;;
53269;SDS011;39159;45.634;9.420;2023-06-10T05:31:34;9.20;;;6.60;;
53269;SDS011;39159;45.634;9.420;2023-06-10T05:33:59;10.63;;;7.50;;
53269;SDS011;39159;45.634;9.420;2023-06-10T05:36:25;11.13;;;6.45;;
53269;SDS011;39159;45.634;9.420;2023-06-10T05:38:51;11.23;;;7.22;;
53269;SDS011;39159;45.634;9.420;2023-06-10T05:41:17;10.82;;;7.05;;
53269;SDS011;39159;45.634;9.420;2023-06-10T05:43:42;13.35;;;8.32;;
53269;SDS011;39159;45.634;9.420;2023-06-10T05:46:08;9.55;;;7.55;;
53269;SDS011;39159;45.634;9.420;2023-06-10T05:48:33;10.68;;;7.97;;
53269;SDS011;39159;45.634;9.420;2023-06-10T05:50:59;12.18;;;6.68;;
53269;SDS011;39159;45.634;9.420;2023-06-10T05:53:24;7.68;;;6.47;;
53269;SDS011;39159;45.634;9.420;2023-06-10T05:55:50;9.52;;;7.15;;
53269;SDS011;39159;45.634;9.420;2023-06-10T05:58:16;7.80;;;5.72;;
53269;SDS011;39159;45.634;9.420;2023-06-10T06:00:41;9.88;;;7.53;;
53269;SDS011;39159;45.634;9.420;2023-06-10T06:03:07;10.68;;;6.78;;
53269;SDS011;39159;45.634;9.420;2023-06-10T06:05:36;11.27;;;7.28;;
53269;SDS011;39159;45.634;9.420;2023-06-10T06:08:06;9.75;;;6.75;;
53269;SDS011;39159;45.634;9.420;2023-06-10T06:10:32;12.25;;;7.60;;
53269;SDS011;39159;45.634;9.420;2023-06-10T06:12:58;9.07;;;6.45;;
53269;SDS011;39159;45.634;9.420;2023-06-10T06:15:24;10.15;;;6.93;;
53269;SDS011;39159;45.634;9.420;2023-06-10T06:17:50;8.98;;;6.93;;
53269;SDS011;39159;45.634;9.420;2023-06-10T06:20:17;10.38;;;5.78;;
53269;SDS011;39159;45.634;9.420;2023-06-10T06:22:43;6.75;;;5.18;;
53269;SDS011;39159;45.634;9.420;2023-06-10T06:25:09;11.23;;;5.65;;
53269;SDS011;39159;45.634;9.420;2023-06-10T06:27:34;8.73;;;5.43;;
53269;SDS011;39159;45.634;9.420;2023-06-10T06:30:00;9.13;;;5.47;;
53269;SDS011;39159;45.634;9.420;2023-06-10T06:32:25;11.27;;;5.78;;
53269;SDS011;39159;45.634;9.420;2023-06-10T06:34:52;7.07;;;4.90;;
53269;SDS011;39159;45.634;9.420;2023-06-10T06:37:23;12.23;;;6.72;;
53269;SDS011;39159;45.634;9.420;2023-06-10T06:39:52;10.88;;;6.35;;
53269;SDS011;39159;45.634;9.420;2023-06-10T06:42:18;9.20;;;6.18;;
53269;SDS011;39159;45.634;9.420;2023-06-10T06:44:45;7.47;;;5.47;;
53269;SDS011;39159;45.634;9.420;2023-06-10T06:47:10;10.60;;;5.95;;
53269;SDS011;39159;45.634;9.420;2023-06-10T06:49:37;7.85;;;5.22;;
53269;SDS011;39159;45.634;9.420;2023-06-10T06:52:02;7.57;;;4.90;;
53269;SDS011;39159;45.634;9.420;2023-06-10T06:54:28;8.52;;;4.90;;
53269;SDS011;39159;45.634;9.420;2023-06-10T06:56:54;9.25;;;4.85;;
53269;SDS011;39159;45.634;9.420;2023-06-10T06:59:19;10.70;;;5.53;;
53269;SDS011;39159;45.634;9.420;2023-06-10T07:01:45;6.95;;;5.00;;
53269;SDS011;39159;45.634;9.420;2023-06-10T07:04:11;8.75;;;4.80;;
53269;SDS011;39159;45.634;9.420;2023-06-10T07:06:37;7.35;;;4.75;;
53269;SDS011;39159;45.634;9.420;2023-06-10T07:09:03;7.55;;;4.80;;
53269;SDS011;39159;45.634;9.420;2023-06-10T07:11:29;8.45;;;4.20;;
53269;SDS011;39159;45.634;9.420;2023-06-10T07:13:55;8.70;;;4.32;;
53269;SDS011;39159;45.634;9.420;2023-06-10T07:16:21;6.50;;;4.35;;
53269;SDS011;39159;45.634;9.420;2023-06-10T07:18:46;7.32;;;4.10;;
53269;SDS011;39159;45.634;9.420;2023-06-10T07:21:12;7.85;;;3.83;;
53269;SDS011;39159;45.634;9.420;2023-06-10T07:23:41;9.32;;;3.03;;
53269;SDS011;39159;45.634;9.420;2023-06-10T07:26:07;7.13;;;3.45;;
53269;SDS011;39159;45.634;9.420;2023-06-10T07:28:35;8.18;;;3.65;;
53269;SDS011;39159;45.634;9.420;2023-06-10T07:31:01;5.50;;;3.17;;
53269;SDS011;39159;45.634;9.420;2023-06-10T07:33:27;5.40;;;3.75;;
53269;SDS011;39159;45.634;9.420;2023-06-10T07:35:52;5.55;;;3.10;;
53269;SDS011;39159;45.634;9.420;2023-06-10T07:38:18;9.85;;;3.42;;
53269;SDS011;39159;45.634;9.420;2023-06-10T07:40:43;8.85;;;4.30;;
53269;SDS011;39159;45.634;9.420;2023-06-10T07:43:10;5.00;;;3.38;;
53269;SDS011;39159;45.634;9.420;2023-06-10T07:45:36;6.90;;;3.92;;
53269;SDS011;39159;45.634;9.420;2023-06-10T07:48:01;8.13;;;3.60;;
53269;SDS011;39159;45.634;9.420;2023-06-10T07:50:27;9.10;;;4.60;;
53269;SDS011;39159;45.634;9.420;2023-06-10T07:52:52;4.30;;;3.17;;
53269;SDS011;39159;45.634;9.420;2023-06-10T07:55:18;6.97;;;3.50;;
53269;SDS011;39159;45.634;9.420;2023-06-10T07:57:43;6.13;;;3.60;;
53269;SDS011;39159;45.634;9.420;2023-06-10T08:00:09;14.70;;;5.15;;
53269;SDS011;39159;45.634;9.420;2023-06-10T08:02:35;8.70;;;3.70;;
53269;SDS011;39159;45.634;9.420;2023-06-10T08:05:00;5.75;;;3.42;;
53269;SDS011;39159;45.634;9.420;2023-06-10T08:07:25;6.63;;;3.60;;
53269;SDS011;39159;45.634;9.420;2023-06-10T08:09:51;8.27;;;3.72;;
53269;SDS011;39159;45.634;9.420;2023-06-10T08:12:16;7.60;;;3.90;;
53269;SDS011;39159;45.634;9.420;2023-06-10T08:14:42;8.45;;;3.60;;
53269;SDS011;39159;45.634;9.420;2023-06-10T08:17:07;12.02;;;4.35;;
53269;SDS011;39159;45.634;9.420;2023-06-10T08:19:33;7.20;;;3.47;;
53269;SDS011;39159;45.634;9.420;2023-06-10T08:21:58;7.55;;;3.42;;
53269;SDS011;39159;45.634;9.420;2023-06-10T08:24:24;10.32;;;3.50;;
53269;SDS011;39159;45.634;9.420;2023-06-10T08:26:49;13.23;;;4.47;;
53269;SDS011;39159;45.634;9.420;2023-06-10T08:29:15;5.43;;;3.58;;
53269;SDS011;39159;45.634;9.420;2023-06-10T08:31:41;7.65;;;3.72;;
53269;SDS011;39159;45.634;9.420;2023-06-10T08:34:08;7.85;;;4.22;;
53269;SDS011;39159;45.634;9.420;2023-06-10T08:36:33;5.93;;;3.97;;
53269;SDS011;39159;45.634;9.420;2023-06-10T08:38:59;7.65;;;4.35;;
53269;SDS011;39159;45.634;9.420;2023-06-10T08:41:24;10.63;;;4.10;;
53269;SDS011;39159;45.634;9.420;2023-06-10T08:46:58;8.88;;;4.38;;
53269;SDS011;39159;45.634;9.420;2023-06-10T08:49:26;6.40;;;4.00;;
53269;SDS011;39159;45.634;9.420;2023-06-10T08:51:57;6.85;;;4.10;;
53269;SDS011;39159;45.634;9.420;2023-06-10T08:54:25;7.63;;;3.67;;
53269;SDS011;39159;45.634;9.420;2023-06-10T08:56:53;6.50;;;4.03;;
53269;SDS011;39159;45.634;9.420;2023-06-10T08:59:22;6.55;;;3.50;;
53269;SDS011;39159;45.634;9.420;2023-06-10T09:01:50;4.93;;;3.17;;
53269;SDS011;39159;45.634;9.420;2023-06-10T09:04:18;7.88;;;3.40;;
53269;SDS011;39159;45.634;9.420;2023-06-10T09:06:44;11.70;;;3.95;;
53269;SDS011;39159;45.634;9.420;2023-06-10T09:09:12;11.77;;;5.55;;
53269;SDS011;39159;45.634;9.420;2023-06-10T09:11:40;7.25;;;3.28;;
53269;SDS011;39159;45.634;9.420;2023-06-10T09:14:07;6.05;;;3.55;;
53269;SDS011;39159;45.634;9.420;2023-06-10T09:16:33;7.85;;;3.90;;
53269;SDS011;39159;45.634;9.420;2023-06-10T09:18:59;7.57;;;3.97;;
53269;SDS011;39159;45.634;9.420;2023-06-10T09:21:25;10.60;;;3.67;;
53269;SDS011;39159;45.634;9.420;2023-06-10T09:23:51;7.47;;;3.83;;
53269;SDS011;39159;45.634;9.420;2023-06-10T09:26:17;10.30;;;4.65;;
53269;SDS011;39159;45.634;9.420;2023-06-10T09:28:43;9.73;;;4.47;;
53269;SDS011;39159;45.634;9.420;2023-06-10T09:31:10;8.90;;;4.57;;
53269;SDS011;39159;45.634;9.420;2023-06-10T09:33:37;7.32;;;4.55;;
53269;SDS011;39159;45.634;9.420;2023-06-10T09:36:04;7.78;;;4.18;;
53269;SDS011;39159;45.634;9.420;2023-06-10T09:38:31;10.25;;;4.68;;
53269;SDS011;39159;45.634;9.420;2023-06-10T09:40:57;11.30;;;5.25;;
53269;SDS011;39159;45.634;9.420;2023-06-10T09:43:26;8.35;;;4.85;;
53269;SDS011;39159;45.634;9.420;2023-06-10T09:46:14;7.03;;;4.60;;
53269;SDS011;39159;45.634;9.420;2023-06-10T09:48:42;8.90;;;4.95;;
53269;SDS011;39159;45.634;9.420;2023-06-10T09:51:11;19.88;;;4.88;;
53269;SDS011;39159;45.634;9.420;2023-06-10T09:53:38;10.60;;;5.18;;
53269;SDS011;39159;45.634;9.420;2023-06-10T09:56:04;9.98;;;4.55;;
53269;SDS011;39159;45.634;9.420;2023-06-10T09:58:36;8.45;;;4.72;;
53269;SDS011;39159;45.634;9.420;2023-06-10T10:01:06;9.52;;;4.78;;
53269;SDS011;39159;45.634;9.420;2023-06-10T10:03:48;10.18;;;5.28;;
53269;SDS011;39159;45.634;9.420;2023-06-10T10:06:15;10.27;;;3.78;;
53269;SDS011;39159;45.634;9.420;2023-06-10T10:08:42;9.30;;;5.20;;
53269;SDS011;39159;45.634;9.420;2023-06-10T10:11:08;10.38;;;5.40;;
53269;SDS011;39159;45.634;9.420;2023-06-10T10:13:35;9.80;;;4.78;;
53269;SDS011;39159;45.634;9.420;2023-06-10T10:16:04;8.45;;;5.00;;
53269;SDS011;39159;45.634;9.420;2023-06-10T10:18:35;9.02;;;4.82;;
53269;SDS011;39159;45.634;9.420;2023-06-10T10:21:05;9.93;;;4.25;;
53269;SDS011;39159;45.634;9.420;2023-06-10T10:26:09;10.65;;;4.30;;
53269;SDS011;39159;45.634;9.420;2023-06-10T10:28:46;12.63;;;4.85;;
53269;SDS011;39159;45.634;9.420;2023-06-10T10:31:18;11.50;;;4.78;;
53269;SDS011;39159;45.634;9.420;2023-06-10T10:33:48;7.95;;;4.35;;
53269;SDS011;39159;45.634;9.420;2023-06-10T10:36:21;8.05;;;4.55;;
53269;SDS011;39159;45.634;9.420;2023-06-10T10:38:47;12.38;;;4.70;;
53269;SDS011;39159;45.634;9.420;2023-06-10T10:41:14;6.65;;;4.18;;
53269;SDS011;39159;45.634;9.420;2023-06-10T10:43:40;11.65;;;5.00;;
53269;SDS011;39159;45.634;9.420;2023-06-10T10:46:12;7.03;;;4.40;;
53269;SDS011;39159;45.634;9.420;2023-06-10T10:48:40;8.25;;;4.57;;
53269;SDS011;39159;45.634;9.420;2023-06-10T10:51:07;11.32;;;5.53;;
53269;SDS011;39159;45.634;9.420;2023-06-10T10:53:33;9.77;;;5.57;;
53269;SDS011;39159;45.634;9.420;2023-06-10T10:56:05;11.73;;;5.43;;
53269;SDS011;39159;45.634;9.420;2023-06-10T10:58:32;10.57;;;5.40;;
53269;SDS011;39159;45.634;9.420;2023-06-10T11:00:57;9.68;;;5.10;;
53269;SDS011;39159;45.634;9.420;2023-06-10T11:03:24;9.43;;;5.07;;
53269;SDS011;39159;45.634;9.420;2023-06-10T11:05:54;10.40;;;6.15;;
53269;SDS011;39159;45.634;9.420;2023-06-10T11:10:57;7.40;;;5.07;;
53269;SDS011;39159;45.634;9.420;2023-06-10T11:13:22;9.70;;;4.95;;
53269;SDS011;39159;45.634;9.420;2023-06-10T11:15:49;6.05;;;4.50;;
53269;SDS011;39159;45.634;9.420;2023-06-10T11:18:35;6.53;;;4.50;;
53269;SDS011;39159;45.634;9.420;2023-06-10T11:21:04;7.97;;;4.80;;
53269;SDS011;39159;45.634;9.420;2023-06-10T11:23:32;12.43;;;5.63;;
53269;SDS011;39159;45.634;9.420;2023-06-10T11:31:19;14.32;;;6.00;;
53269;SDS011;39159;45.634;9.420;2023-06-10T11:33:51;7.10;;;4.78;;
53269;SDS011;39159;45.634;9.420;2023-06-10T11:36:32;6.22;;;4.18;;
53269;SDS011;39159;45.634;9.420;2023-06-10T11:39:03;9.07;;;4.80;;
53269;SDS011;39159;45.634;9.420;2023-06-10T11:41:31;7.43;;;4.13;;
53269;SDS011;39159;45.634;9.420;2023-06-10T11:44:01;6.70;;;4.30;;
53269;SDS011;39159;45.634;9.420;2023-06-10T11:46:28;8.53;;;4.60;;
53269;SDS011;39159;45.634;9.420;2023-06-10T11:48:55;7.43;;;3.97;;
53269;SDS011;39159;45.634;9.420;2023-06-10T11:51:25;7.55;;;4.07;;
53269;SDS011;39159;45.634;9.420;2023-06-10T11:53:52;9.25;;;4.82;;
53269;SDS011;39159;45.634;9.420;2023-06-10T11:56:20;7.30;;;4.35;;
53269;SDS011;39159;45.634;9.420;2023-06-10T11:58:51;6.25;;;4.35;;
53269;SDS011;39159;45.634;9.420;2023-06-10T12:01:26;5.75;;;4.10;;
53269;SDS011;39159;45.634;9.420;2023-06-10T12:03:58;9.48;;;4.00;;
53269;SDS011;39159;45.634;9.420;2023-06-10T12:06:24;5.68;;;4.60;;
53269;SDS011;39159;45.634;9.420;2023-06-10T12:08:49;9.25;;;4.35;;
53269;SDS011;39159;45.634;9.420;2023-06-10T12:11:15;7.05;;;3.47;;
53269;SDS011;39159;45.634;9.420;2023-06-10T12:13:47;6.68;;;3.72;;
53269;SDS011;39159;45.634;9.420;2023-06-10T12:16:14;6.32;;;4.20;;
53269;SDS011;39159;45.634;9.420;2023-06-10T12:18:42;8.30;;;4.10;;
53269;SDS011;39159;45.634;9.420;2023-06-10T12:21:17;7.45;;;4.43;;
53269;SDS011;39159;45.634;9.420;2023-06-10T12:24:04;8.20;;;4.53;;
53269;SDS011;39159;45.634;9.420;2023-06-10T12:26:40;9.32;;;4.75;;
53269;SDS011;39159;45.634;9.420;2023-06-10T12:34:36;8.80;;;4.00;;
53269;SDS011;39159;45.634;9.420;2023-06-10T12:37:03;5.82;;;4.22;;
53269;SDS011;39159;45.634;9.420;2023-06-10T12:39:38;7.05;;;4.45;;
53269;SDS011;39159;45.634;9.420;2023-06-10T12:42:05;6.18;;;3.88;;
53269;SDS011;39159;45.634;9.420;2023-06-10T12:44:35;6.40;;;4.22;;
53269;SDS011;39159;45.634;9.420;2023-06-10T12:47:10;7.75;;;4.70;;
53269;SDS011;39159;45.634;9.420;2023-06-10T12:49:40;6.93;;;4.28;;
53269;SDS011;39159;45.634;9.420;2023-06-10T12:52:06;5.78;;;4.30;;
53269;SDS011;39159;45.634;9.420;2023-06-10T12:54:32;8.02;;;5.07;;
53269;SDS011;39159;45.634;9.420;2023-06-10T12:56:58;6.30;;;4.35;;
53269;SDS011;39159;45.634;9.420;2023-06-10T12:59:24;6.32;;;4.53;;
53269;SDS011;39159;45.634;9.420;2023-06-10T13:01:50;9.20;;;4.40;;
53269;SDS011;39159;45.634;9.420;2023-06-10T13:04:19;8.70;;;5.03;;
53269;SDS011;39159;45.634;9.420;2023-06-10T13:06:46;7.25;;;4.80;;
53269;SDS011;39159;45.634;9.420;2023-06-10T13:09:14;12.93;;;5.03;;
53269;SDS011;39159;45.634;9.420;2023-06-10T13:11:40;9.18;;;4.72;;
53269;SDS011;39159;45.634;9.420;2023-06-10T13:14:07;6.95;;;4.10;;
53269;SDS011;39159;45.634;9.420;2023-06-10T13:16:33;9.65;;;4.85;;
53269;SDS011;39159;45.634;9.420;2023-06-10T13:18:59;11.10;;;3.95;;
53269;SDS011;39159;45.634;9.420;2023-06-10T13:21:27;8.15;;;4.47;;
53269;SDS011;39159;45.634;9.420;2023-06-10T13:23:53;5.78;;;4.22;;
53269;SDS011;39159;45.634;9.420;2023-06-10T13:26:19;4.97;;;3.80;;
53269;SDS011;39159;45.634;9.420;2023-06-10T13:28:45;8.43;;;4.10;;
53269;SDS011;39159;45.634;9.420;2023-06-10T13:31:10;7.32;;;4.45;;
53269;SDS011;39159;45.634;9.420;2023-06-10T13:33:36;8.40;;;4.18;;
53269;SDS011;39159;45.634;9.420;2023-06-10T13:36:02;5.03;;;4.10;;
53269;SDS011;39159;45.634;9.420;2023-06-10T13:38:28;7.32;;;4.63;;
53269;SDS011;39159;45.634;9.420;2023-06-10T13:40:54;9.30;;;5.70;;
53269;SDS011;39159;45.634;9.420;2023-06-10T13:43:20;4.70;;;3.25;;
53269;SDS011;39159;45.634;9.420;2023-06-10T13:45:46;6.10;;;4.35;;
53269;SDS011;39159;45.634;9.420;2023-06-10T13:48:12;7.53;;;4.70;;
53269;SDS011;39159;45.634;9.420;2023-06-10T13:50:38;7.72;;;4.75;;
53269;SDS011;39159;45.634;9.420;2023-06-10T13:53:04;6.93;;;4.40;;
53269;SDS011;39159;45.634;9.420;2023-06-10T13:55:29;7.32;;;4.35;;
53269;SDS011;39159;45.634;9.420;2023-06-10T13:57:55;5.70;;;3.50;;
53269;SDS011;39159;45.634;9.420;2023-06-10T14:00:21;5.78;;;3.95;;
53269;SDS011;39159;45.634;9.420;2023-06-10T14:02:47;6.22;;;3.83;;
53269;SDS011;39159;45.634;9.420;2023-06-10T14:05:13;7.93;;;4.70;;
53269;SDS011;39159;45.634;9.420;2023-06-10T14:07:39;7.82;;;4.18;;
53269;SDS011;39159;45.634;9.420;2023-06-10T14:10:06;9.73;;;5.00;;
53269;SDS011;39159;45.634;9.420;2023-06-10T14:12:33;6.57;;;4.25;;
53269;SDS011;39159;45.634;9.420;2023-06-10T14:15:00;7.40;;;4.88;;
53269;SDS011;39159;45.634;9.420;2023-06-10T14:17:26;6.28;;;4.97;;
53269;SDS011;39159;45.634;9.420;2023-06-10T14:19:51;10.10;;;4.88;;
53269;SDS011;39159;45.634;9.420;2023-06-10T14:22:17;8.80;;;5.43;;
53269;SDS011;39159;45.634;9.420;2023-06-10T14:24:43;6.90;;;4.70;;
53269;SDS011;39159;45.634;9.420;2023-06-10T14:27:08;6.18;;;4.50;;
53269;SDS011;39159;45.634;9.420;2023-06-10T14:29:34;6.00;;;4.18;;
53269;SDS011;39159;45.634;9.420;2023-06-10T14:32:00;6.22;;;4.68;;
53269;SDS011;39159;45.634;9.420;2023-06-10T14:34:26;8.20;;;4.43;;
53269;SDS011;39159;45.634;9.420;2023-06-10T14:36:59;7.70;;;5.03;;
53269;SDS011;39159;45.634;9.420;2023-06-10T14:39:25;5.20;;;3.70;;
53269;SDS011;39159;45.634;9.420;2023-06-10T14:41:51;8.05;;;4.60;;
53269;SDS011;39159;45.634;9.420;2023-06-10T14:44:19;7.50;;;3.92;;
53269;SDS011;39159;45.634;9.420;2023-06-10T14:46:45;8.57;;;4.32;;
53269;SDS011;39159;45.634;9.420;2023-06-10T14:49:14;6.93;;;4.35;;
53269;SDS011;39159;45.634;9.420;2023-06-10T14:51:40;6.20;;;4.25;;
53269;SDS011;39159;45.634;9.420;2023-06-10T14:54:06;5.32;;;4.00;;
53269;SDS011;39159;45.634;9.420;2023-06-10T14:56:32;6.30;;;3.78;;
53269;SDS011;39159;45.634;9.420;2023-06-10T14:58:58;6.50;;;4.20;;
53269;SDS011;39159;45.634;9.420;2023-06-10T15:01:24;6.97;;;4.13;;
53269;SDS011;39159;45.634;9.420;2023-06-10T15:03:49;7.82;;;4.93;;